createdAt,value
2022-09-15T00:01:12.086Z,14.99
2022-09-15T00:03:42.330Z,14.97
2022-09-15T00:06:10.342Z,14.95
2022-09-15T00:08:38.394Z,14.90
2022-09-15T00:11:09.524Z,14.88
2022-09-15T00:13:38.477Z,14.85
2022-09-15T00:16:06.754Z,14.82
2022-09-15T00:18:35.041Z,14.80
2022-09-15T00:21:07.903Z,14.80
2022-09-15T00:23:36.441Z,14.80
2022-09-15T00:26:07.025Z,14.78
2022-09-15T00:28:34.723Z,14.76
2022-09-15T00:31:08.045Z,14.77
2022-09-15T00:33:36.257Z,14.76
2022-09-15T00:36:06.786Z,14.76
2022-09-15T00:38:35.474Z,14.77
2022-09-15T00:41:04.250Z,14.75
2022-09-15T00:43:52.340Z,14.77
2022-09-15T00:46:32.348Z,14.79
2022-09-15T00:49:21.534Z,14.80
2022-09-15T00:51:58.398Z,14.82
2022-09-15T00:54:44.771Z,14.83
2022-09-15T00:57:15.743Z,14.83
2022-09-15T00:59:44.642Z,14.84
2022-09-15T01:02:21.574Z,14.83
2022-09-15T01:04:52.761Z,14.82
2022-09-15T01:07:24.933Z,14.81
2022-09-15T01:09:56.238Z,14.81
2022-09-15T01:12:25.274Z,14.79
2022-09-15T01:14:52.759Z,14.79
2022-09-15T01:17:23.822Z,14.77
2022-09-15T01:20:16.126Z,14.74
2022-09-15T01:22:53.123Z,14.74
2022-09-15T01:25:53.019Z,14.73
2022-09-15T01:28:43.455Z,14.71
2022-09-15T01:31:31.940Z,14.69
2022-09-15T01:34:05.890Z,14.67
2022-09-15T01:36:48.023Z,14.67
2022-09-15T01:39:21.347Z,14.66
2022-09-15T01:41:52.585Z,14.66
2022-09-15T01:44:25.765Z,14.65
2022-09-15T01:46:56.592Z,14.65
2022-09-15T01:49:26.443Z,14.64
2022-09-15T01:51:54.414Z,14.62
2022-09-15T01:54:28.285Z,14.62
2022-09-15T01:56:56.716Z,14.60
2022-09-15T01:59:24.437Z,14.60
2022-09-15T02:02:04.897Z,14.59
2022-09-15T02:04:38.824Z,14.56
2022-09-15T02:07:12.704Z,14.55
2022-09-15T02:09:49.650Z,14.54
2022-09-15T02:12:33.612Z,14.55
2022-09-15T02:15:06.508Z,14.55
2022-09-15T02:17:38.539Z,14.54
2022-09-15T02:20:15.688Z,14.52
2022-09-15T02:22:55.243Z,14.53
2022-09-15T02:25:26.386Z,14.53
2022-09-15T02:27:55.877Z,14.56
2022-09-15T02:30:23.567Z,14.56
2022-09-15T02:32:56.300Z,14.58
2022-09-15T02:35:26.114Z,14.57
2022-09-15T02:37:54.252Z,14.56
2022-09-15T02:40:22.713Z,14.55
2022-09-15T02:42:56.309Z,14.53
2022-09-15T02:45:24.971Z,14.51
2022-09-15T02:47:52.647Z,14.50
2022-09-15T02:50:20.738Z,14.47
2022-09-15T02:52:48.233Z,14.46
2022-09-15T02:55:16.008Z,14.46
2022-09-15T02:57:43.610Z,14.47
2022-09-15T03:00:12.494Z,14.45
2022-09-15T03:02:46.774Z,14.45
2022-09-15T03:05:14.733Z,14.47
2022-09-15T03:07:43.020Z,14.49
2022-09-15T03:10:12.051Z,14.51
2022-09-15T03:12:45.618Z,14.53
2022-09-15T03:15:14.808Z,14.56
2022-09-15T03:17:43.549Z,14.61
2022-09-15T03:20:13.552Z,14.61
2022-09-15T03:22:41.181Z,14.62
2022-09-15T03:25:10.194Z,14.66
2022-09-15T03:27:38.262Z,14.68
2022-09-15T03:30:07.731Z,14.72
2022-09-15T03:32:35.646Z,14.75
2022-09-15T03:35:04.423Z,14.77
2022-09-15T03:37:32.599Z,14.78
2022-09-15T03:40:00.421Z,14.79
2022-09-15T03:42:31.604Z,14.80
2022-09-15T03:44:59.281Z,14.82
2022-09-15T03:47:30.029Z,14.83
2022-09-15T03:49:58.745Z,14.84
2022-09-15T03:52:26.350Z,14.84
2022-09-15T03:54:58.586Z,14.84
2022-09-15T03:57:26.528Z,14.84
2022-09-15T03:59:54.531Z,14.87
2022-09-15T04:02:24.751Z,14.86
2022-09-15T04:04:52.398Z,14.88
2022-09-15T04:07:20.788Z,14.89
2022-09-15T04:09:48.773Z,14.90
2022-09-15T04:12:18.185Z,14.91
2022-09-15T04:14:45.622Z,14.94
2022-09-15T04:17:14.954Z,14.95
2022-09-15T04:19:42.778Z,14.97
2022-09-15T04:22:13.201Z,14.98
2022-09-15T04:24:39.108Z,14.99
2022-09-15T04:27:06.265Z,15.00
2022-09-15T04:29:33.637Z,15.04
2022-09-15T04:32:24.122Z,15.06
2022-09-15T04:34:55.714Z,15.08
2022-09-15T04:37:23.201Z,15.09
2022-09-15T04:39:50.637Z,15.13
2022-09-15T04:45:08.253Z,15.21
2022-09-15T04:47:35.635Z,15.25
2022-09-15T04:50:03.007Z,15.28
2022-09-15T04:52:31.027Z,15.32
2022-09-15T04:54:58.470Z,15.35
2022-09-15T04:57:26.044Z,15.38
2022-09-15T04:59:53.217Z,15.40
2022-09-15T05:02:20.703Z,15.43
2022-09-15T05:04:48.697Z,15.45
2022-09-15T05:07:16.177Z,15.46
2022-09-15T05:09:43.772Z,15.49
2022-09-15T05:12:11.397Z,15.53
2022-09-15T05:14:38.540Z,15.56
2022-09-15T05:17:05.697Z,15.60
2022-09-15T05:19:33.577Z,15.64
2022-09-15T05:22:00.936Z,15.68
2022-09-15T05:24:28.309Z,15.72
2022-09-15T05:26:55.608Z,15.77
2022-09-15T05:29:23.102Z,15.79
2022-09-15T05:31:50.827Z,15.82
2022-09-15T05:34:18.137Z,15.87
2022-09-15T05:36:45.663Z,15.94
2022-09-15T05:39:12.927Z,15.98
2022-09-15T05:41:40.673Z,16.04
2022-09-15T05:44:09.846Z,16.09
2022-09-15T05:46:37.367Z,16.11
2022-09-15T05:49:05.029Z,16.17
2022-09-15T05:51:32.779Z,16.18
2022-09-15T05:54:00.147Z,16.22
2022-09-15T05:56:27.498Z,16.26
2022-09-15T05:58:54.773Z,16.29
2022-09-15T06:01:24.567Z,16.32
2022-09-15T06:03:52.853Z,16.36
2022-09-15T06:06:21.555Z,16.43
2022-09-15T06:08:57.438Z,16.54
2022-09-15T06:11:24.657Z,16.65
2022-09-15T06:13:52.212Z,16.75
2022-09-15T06:16:23.840Z,16.84
2022-09-15T06:18:52.869Z,16.89
2022-09-15T06:21:26.228Z,16.96
2022-09-15T06:23:56.151Z,16.98
2022-09-15T06:26:23.696Z,17.01
2022-09-15T06:28:53.155Z,17.01
2022-09-15T06:31:21.167Z,16.99
2022-09-15T06:33:50.599Z,16.96
2022-09-15T06:36:19.790Z,16.95
2022-09-15T06:38:47.765Z,16.94
2022-09-15T06:41:15.322Z,16.93
2022-09-15T06:43:43.270Z,16.93
2022-09-15T06:46:16.701Z,16.93
2022-09-15T06:48:48.192Z,16.93
2022-09-15T06:51:16.402Z,16.97
2022-09-15T06:53:45.098Z,16.98
2022-09-15T06:56:15.309Z,17.02
2022-09-15T06:58:43.335Z,17.03
2022-09-15T07:01:24.787Z,17.06
2022-09-15T07:03:52.316Z,17.09
2022-09-15T07:06:20.517Z,17.13
2022-09-15T07:08:49.338Z,17.14
2022-09-15T07:11:17.861Z,17.17
2022-09-15T07:13:46.520Z,17.18
2022-09-15T07:16:14.170Z,17.19
2022-09-15T07:18:43.528Z,17.20
2022-09-15T07:21:13.159Z,17.20
2022-09-15T07:23:40.738Z,17.23
2022-09-15T07:26:17.459Z,17.26
2022-09-15T07:28:49.427Z,17.31
2022-09-15T07:31:19.069Z,17.32
2022-09-15T07:33:47.069Z,17.31
2022-09-15T07:36:15.144Z,17.34
2022-09-15T07:38:44.714Z,17.35
2022-09-15T07:41:14.225Z,17.35
2022-09-15T07:43:50.062Z,17.35
2022-09-15T07:46:18.570Z,17.34
2022-09-15T07:48:46.862Z,17.36
2022-09-15T07:51:14.680Z,17.36
2022-09-15T07:53:43.550Z,17.37
2022-09-15T07:56:10.847Z,17.37
2022-09-15T07:58:38.428Z,17.40
2022-09-15T08:01:07.786Z,17.45
2022-09-15T08:03:35.177Z,17.49
2022-09-15T08:06:03.381Z,17.53
2022-09-15T08:08:30.584Z,17.55
2022-09-15T08:10:57.890Z,17.57
2022-09-15T08:13:25.483Z,17.61
2022-09-15T08:15:53.089Z,17.67
2022-09-15T08:18:20.494Z,17.71
2022-09-15T08:20:47.679Z,17.73
2022-09-15T08:23:15.157Z,17.74
2022-09-15T08:25:42.593Z,17.78
2022-09-15T08:28:09.776Z,17.82
2022-09-15T08:30:38.244Z,17.86
2022-09-15T08:33:05.336Z,17.89
2022-09-15T08:35:33.762Z,17.93
2022-09-15T08:38:00.819Z,17.94
2022-09-15T08:40:34.569Z,17.96
2022-09-15T08:43:05.599Z,17.94
2022-09-15T08:45:36.432Z,17.96
2022-09-15T08:48:04.997Z,17.97
2022-09-15T08:50:37.846Z,17.97
2022-09-15T08:53:14.010Z,17.98
2022-09-15T08:55:48.912Z,18.02
2022-09-15T08:58:24.791Z,18.03
2022-09-15T09:01:12.498Z,18.05
2022-09-15T09:04:00.014Z,18.08
2022-09-15T09:07:04.623Z,18.09
2022-09-15T09:09:43.930Z,18.10
2022-09-15T09:12:20.495Z,18.08
2022-09-15T09:15:00.351Z,18.10
2022-09-15T09:17:59.130Z,18.10
2022-09-15T09:20:39.210Z,18.11
2022-09-15T09:23:10.687Z,18.08
2022-09-15T09:25:38.163Z,18.08
2022-09-15T09:28:06.423Z,18.10
2022-09-15T09:30:34.821Z,18.15
2022-09-15T09:33:20.941Z,18.22
2022-09-15T09:35:52.117Z,18.31
2022-09-15T09:38:22.480Z,18.44
2022-09-15T09:40:50.510Z,18.53
2022-09-15T09:43:18.169Z,18.67
2022-09-15T09:45:45.616Z,18.78
2022-09-15T09:48:19.927Z,18.90
2022-09-15T09:50:49.120Z,18.99
2022-09-15T09:53:23.287Z,19.07
2022-09-15T09:55:52.727Z,19.15
2022-09-15T09:58:22.009Z,19.23
2022-09-15T10:00:50.799Z,19.29
2022-09-15T10:03:20.668Z,19.33
2022-09-15T10:06:07.327Z,19.42
2022-09-15T10:08:36.111Z,19.51
2022-09-15T10:11:06.128Z,19.58
2022-09-15T10:13:35.222Z,19.63
2022-09-15T10:16:05.060Z,19.69
2022-09-15T10:18:37.628Z,19.72
2022-09-15T10:21:07.098Z,19.77
2022-09-15T10:23:34.824Z,19.83
2022-09-15T10:26:34.026Z,19.91
2022-09-15T10:31:46.477Z,20.10
2022-09-15T10:34:34.609Z,20.22
2022-09-15T10:37:09.436Z,20.33
2022-09-15T10:39:56.017Z,20.44
2022-09-15T10:42:37.891Z,20.53
2022-09-15T10:45:27.214Z,20.60
2022-09-15T10:48:11.666Z,20.64
2022-09-15T10:51:06.948Z,20.69
2022-09-15T10:53:57.581Z,20.75
2022-09-15T10:56:36.297Z,20.74
2022-09-15T10:59:10.305Z,20.74
2022-09-15T11:01:57.813Z,20.73
2022-09-15T11:04:56.107Z,20.75
2022-09-15T11:07:56.224Z,20.85
2022-09-15T11:10:28.375Z,21.06
2022-09-15T11:13:30.010Z,21.30
2022-09-15T11:16:28.184Z,21.59
2022-09-15T11:19:25.764Z,21.79
2022-09-15T11:22:02.036Z,22.01
2022-09-15T11:24:50.369Z,22.35
2022-09-15T11:27:27.864Z,22.61
2022-09-15T11:30:12.880Z,22.79
2022-09-15T11:32:47.587Z,22.87
2022-09-15T11:35:54.102Z,22.95
2022-09-15T11:38:52.575Z,22.99
2022-09-15T11:41:26.080Z,22.93
2022-09-15T11:44:24.603Z,22.87
2022-09-15T11:46:57.031Z,22.84
2022-09-15T11:49:38.844Z,22.83
2022-09-15T11:52:15.876Z,22.89
2022-09-15T11:54:46.910Z,22.95
2022-09-15T11:57:23.323Z,22.96
2022-09-15T12:00:00.978Z,22.93
2022-09-15T12:02:35.067Z,22.86
2022-09-15T12:05:33.071Z,22.81
2022-09-15T12:08:27.889Z,22.74
2022-09-15T12:10:56.906Z,22.70
2022-09-15T12:13:25.543Z,22.70
2022-09-15T12:15:53.945Z,22.73
2022-09-15T12:18:39.949Z,22.77
2022-09-15T12:21:19.428Z,22.83
2022-09-15T12:23:53.233Z,22.85
2022-09-15T12:26:23.264Z,22.87
2022-09-15T12:29:01.560Z,22.97
2022-09-15T12:31:35.746Z,23.03
2022-09-15T12:34:23.781Z,23.05
2022-09-15T12:36:57.137Z,23.16
2022-09-15T12:39:40.233Z,23.42
2022-09-15T12:42:18.408Z,23.65
2022-09-15T12:45:01.345Z,23.86
2022-09-15T12:47:36.434Z,23.87
2022-09-15T12:50:25.357Z,23.86
2022-09-15T12:52:56.747Z,23.99
2022-09-15T12:55:28.620Z,24.03
2022-09-15T12:57:59.769Z,24.02
2022-09-15T13:00:33.105Z,24.09
2022-09-15T13:03:02.030Z,24.16
2022-09-15T13:05:46.290Z,24.26
2022-09-15T13:08:32.759Z,24.47
2022-09-15T13:11:08.162Z,24.67
2022-09-15T13:13:59.968Z,24.79
2022-09-15T13:16:30.921Z,24.85
2022-09-15T13:19:24.862Z,24.94
2022-09-15T13:22:04.354Z,24.98
2022-09-15T13:24:47.313Z,25.08
2022-09-15T13:27:18.566Z,25.11
2022-09-15T13:30:24.539Z,25.19
2022-09-15T13:33:21.450Z,25.26
2022-09-15T13:36:04.365Z,25.28
2022-09-15T13:38:41.358Z,25.19
2022-09-15T13:41:35.496Z,25.12
2022-09-15T13:44:18.218Z,24.96
2022-09-15T13:46:53.114Z,24.75
2022-09-15T13:49:27.011Z,24.38
2022-09-15T13:52:00.436Z,24.25
2022-09-15T13:54:28.019Z,24.18
2022-09-15T13:56:58.792Z,24.17
2022-09-15T13:59:31.194Z,24.22
2022-09-15T14:02:00.540Z,24.20
2022-09-15T14:04:30.581Z,24.07
2022-09-15T14:07:01.263Z,23.96
2022-09-15T14:09:44.590Z,23.83
2022-09-15T14:12:14.553Z,23.75
2022-09-15T14:14:51.802Z,23.70
2022-09-15T14:17:24.737Z,23.65
2022-09-15T14:20:00.066Z,23.62
2022-09-15T14:22:31.298Z,23.63
2022-09-15T14:25:10.624Z,23.67
2022-09-15T14:27:41.688Z,23.68
2022-09-15T14:30:19.021Z,23.65
2022-09-15T14:32:51.496Z,23.56
2022-09-15T14:35:26.186Z,23.50
2022-09-15T14:37:56.210Z,23.50
2022-09-15T14:40:37.403Z,23.53
2022-09-15T14:43:15.277Z,23.61
2022-09-15T14:45:55.918Z,23.67
2022-09-15T14:48:17.969Z,23.69
2022-09-15T14:50:50.009Z,23.64
2022-09-15T14:53:19.634Z,23.61
2022-09-15T14:55:50.274Z,23.59
2022-09-15T14:58:24.288Z,23.57
2022-09-15T15:00:56.037Z,23.51
2022-09-15T15:03:33.666Z,23.46
2022-09-15T15:06:28.306Z,23.40
2022-09-15T15:08:44.002Z,23.33
2022-09-15T15:11:14.455Z,23.34
2022-09-15T15:13:43.885Z,23.39
2022-09-15T15:16:15.276Z,23.41
2022-09-15T15:18:43.412Z,23.39
2022-09-15T15:21:37.775Z,23.41
2022-09-15T15:24:17.648Z,23.40
2022-09-15T15:26:46.835Z,23.37
2022-09-15T15:29:42.849Z,23.31
2022-09-15T15:32:15.714Z,23.27
2022-09-15T15:34:59.929Z,23.20
2022-09-15T15:37:31.950Z,23.15
2022-09-15T15:40:07.471Z,23.10
2022-09-15T15:42:35.299Z,23.04
2022-09-15T15:45:21.920Z,22.94
2022-09-15T15:47:49.366Z,22.85
2022-09-15T15:50:25.609Z,22.79
2022-09-15T15:52:55.156Z,22.77
2022-09-15T15:55:26.778Z,22.71
2022-09-15T15:57:55.719Z,22.67
2022-09-15T16:00:29.988Z,22.64
2022-09-15T16:02:57.342Z,22.62
2022-09-15T16:05:30.279Z,22.57
2022-09-15T16:08:02.356Z,22.51
2022-09-15T16:10:39.215Z,22.46
2022-09-15T16:13:12.259Z,22.43
2022-09-15T16:15:41.397Z,22.36
2022-09-15T16:18:09.806Z,22.30
2022-09-15T16:20:40.929Z,22.27
2022-09-15T16:23:14.194Z,22.23
2022-09-15T16:25:54.667Z,22.20
2022-09-15T16:28:25.844Z,22.13
2022-09-15T16:30:53.199Z,22.04
2022-09-15T16:33:21.151Z,21.97
2022-09-15T16:35:51.986Z,21.89
2022-09-15T16:38:21.100Z,21.84
2022-09-15T16:40:49.545Z,21.78
2022-09-15T16:43:18.570Z,21.73
2022-09-15T16:45:46.256Z,21.68
2022-09-15T16:48:15.433Z,21.63
2022-09-15T16:51:09.575Z,21.58
2022-09-15T16:53:21.157Z,21.52
2022-09-15T16:55:50.351Z,21.46
2022-09-15T16:58:19.282Z,21.42
2022-09-15T17:00:47.912Z,21.35
2022-09-15T17:03:21.872Z,21.30
2022-09-15T17:05:55.501Z,21.25
2022-09-15T17:08:27.672Z,21.20
2022-09-15T17:11:03.150Z,21.13
2022-09-15T17:13:33.194Z,21.06
2022-09-15T17:16:01.132Z,21.01
2022-09-15T17:18:28.932Z,20.94
2022-09-15T17:20:56.452Z,20.90
2022-09-15T17:23:35.527Z,20.86
2022-09-15T17:26:06.236Z,20.79
2022-09-15T17:28:36.080Z,20.75
2022-09-15T17:31:07.290Z,20.68
2022-09-15T17:33:35.452Z,20.65
2022-09-15T17:36:04.034Z,20.63
2022-09-15T17:38:32.272Z,20.61
2022-09-15T17:41:00.509Z,20.60
2022-09-15T17:43:30.110Z,20.58
2022-09-15T17:45:58.201Z,20.54
2022-09-15T17:55:23.271Z,20.36
2022-09-15T17:58:12.357Z,20.30
2022-09-15T18:00:44.205Z,20.26
2022-09-15T18:03:28.338Z,20.21
2022-09-15T18:06:06.470Z,20.18
2022-09-15T18:08:43.367Z,20.15
2022-09-15T18:11:20.974Z,20.14
2022-09-15T18:16:42.522Z,20.09
2022-09-15T18:19:15.031Z,20.08
2022-09-15T18:21:52.728Z,19.98
2022-09-15T18:24:23.821Z,20.08
2022-09-15T18:27:03.767Z,20.08
2022-09-15T18:29:35.562Z,20.04
2022-09-15T18:32:03.670Z,20.03
2022-09-15T18:34:37.529Z,20.02
2022-09-15T18:37:05.059Z,20.01
2022-09-15T18:39:36.680Z,19.99
2022-09-15T18:42:07.910Z,19.97
2022-09-15T18:44:36.206Z,19.95
2022-09-15T18:47:06.959Z,19.90
2022-09-15T18:49:36.784Z,19.84
2022-09-15T18:52:08.634Z,19.81
2022-09-15T18:54:39.434Z,19.77
2022-09-15T18:57:11.113Z,19.73
2022-09-15T18:59:42.284Z,19.71
2022-09-15T19:02:11.577Z,19.71
2022-09-15T19:04:40.825Z,19.69
2022-09-15T19:07:09.879Z,19.65
2022-09-15T19:09:40.512Z,19.64
2022-09-15T19:12:08.252Z,19.59
2022-09-15T19:14:35.842Z,19.55
2022-09-15T19:17:03.714Z,19.51
2022-09-15T19:19:32.322Z,19.47
2022-09-15T19:21:59.802Z,19.41
2022-09-15T19:24:29.313Z,19.36
2022-09-15T19:26:57.567Z,19.34
2022-09-15T19:29:25.624Z,19.29
2022-09-15T19:31:53.730Z,19.26
2022-09-15T19:34:23.017Z,19.24
2022-09-15T19:36:50.602Z,19.24
2022-09-15T19:39:26.783Z,19.23
2022-09-15T19:42:04.955Z,19.21
2022-09-15T19:44:33.070Z,19.19
2022-09-15T19:47:00.571Z,19.18
2022-09-15T19:49:28.715Z,19.16
2022-09-15T19:51:58.824Z,19.14
2022-09-15T19:54:28.789Z,19.08
2022-09-15T19:56:56.771Z,19.03
2022-09-15T19:59:30.221Z,19.03
2022-09-15T20:01:53.977Z,19.02
2022-09-15T20:04:21.472Z,19.01
2022-09-15T20:06:49.045Z,19.00
2022-09-15T20:09:17.121Z,19.00
2022-09-15T20:11:44.571Z,18.99
2022-09-15T20:14:11.884Z,18.98
2022-09-15T20:16:46.575Z,18.96
2022-09-15T20:19:14.282Z,18.95
2022-09-15T20:21:50.193Z,18.95
2022-09-15T20:24:16.404Z,18.92
2022-09-15T20:26:44.208Z,18.90
2022-09-15T20:29:13.704Z,18.90
2022-09-15T20:31:42.142Z,18.88
2022-09-15T20:34:09.713Z,18.89
2022-09-15T20:36:38.600Z,18.87
2022-09-15T20:39:09.871Z,18.86
2022-09-15T20:41:37.734Z,18.84
2022-09-15T20:44:07.574Z,18.84
2022-09-15T20:46:38.626Z,18.82
2022-09-15T20:49:06.965Z,18.82
2022-09-15T20:51:34.712Z,18.80
2022-09-15T20:54:03.702Z,18.77
2022-09-15T20:56:34.310Z,18.75
2022-09-15T20:59:03.141Z,18.73
2022-09-15T21:01:37.419Z,18.70
2022-09-15T21:04:08.386Z,18.68
2022-09-15T21:06:37.886Z,18.67
2022-09-15T21:09:05.757Z,18.65
2022-09-15T21:11:33.680Z,18.63
2022-09-15T21:14:01.612Z,18.64
2022-09-15T21:16:29.639Z,18.62
2022-09-15T21:18:58.988Z,18.62
2022-09-15T21:21:32.090Z,18.62
2022-09-15T21:24:05.640Z,18.62
2022-09-15T21:26:41.371Z,18.60
2022-09-15T21:29:08.995Z,18.60
2022-09-15T21:31:36.626Z,18.59
2022-09-15T21:34:04.375Z,18.59
2022-09-15T21:36:32.142Z,18.60
2022-09-15T21:38:59.865Z,18.60
2022-09-15T21:41:29.376Z,18.58
2022-09-15T21:43:58.586Z,18.59
2022-09-15T21:46:30.609Z,18.58
2022-09-15T21:48:59.282Z,18.57
2022-09-15T21:51:28.607Z,18.56
2022-09-15T21:53:57.918Z,18.55
2022-09-15T21:56:27.210Z,18.53
2022-09-15T21:58:55.064Z,18.50
2022-09-15T22:01:25.918Z,18.39
2022-09-15T22:03:58.463Z,18.41
2022-09-15T22:06:29.733Z,18.35
2022-09-15T22:08:59.028Z,18.36
2022-09-15T22:11:26.846Z,18.36
2022-09-15T22:13:55.377Z,18.36
2022-09-15T22:16:23.896Z,18.37
2022-09-15T22:18:52.328Z,18.38
2022-09-15T22:21:25.095Z,18.38
2022-09-15T22:23:55.117Z,18.36
2022-09-15T22:26:28.937Z,18.36
2022-09-15T22:28:57.999Z,18.38
2022-09-15T22:31:26.306Z,18.39
2022-09-15T22:33:54.357Z,18.38
2022-09-15T22:36:28.839Z,18.40
2022-09-15T22:38:54.546Z,18.41
2022-09-15T22:41:24.197Z,18.39
2022-09-15T22:43:51.894Z,18.38
2022-09-15T22:46:20.046Z,18.38
2022-09-15T22:48:48.120Z,18.36
2022-09-15T22:51:15.926Z,18.35
2022-09-15T22:53:43.628Z,18.29
2022-09-15T22:56:18.128Z,18.18
2022-09-15T22:58:47.562Z,18.10
2022-09-15T23:01:18.237Z,18.03
2022-09-15T23:03:51.846Z,17.98
2022-09-15T23:06:20.369Z,17.95
2022-09-15T23:08:55.868Z,17.92
2022-09-15T23:11:24.513Z,17.89
2022-09-15T23:13:52.870Z,17.87
2022-09-15T23:16:21.425Z,17.85
2022-09-15T23:18:49.942Z,17.82
2022-09-15T23:21:17.715Z,17.78
2022-09-15T23:23:47.749Z,17.77
2022-09-15T23:26:18.753Z,17.75
2022-09-15T23:28:46.767Z,17.74
2022-09-15T23:31:15.118Z,17.72
2022-09-15T23:33:43.110Z,17.71
2022-09-15T23:36:15.987Z,17.69
2022-09-15T23:38:44.813Z,17.69
2022-09-15T23:41:13.139Z,17.67
2022-09-15T23:43:40.944Z,17.65
2022-09-15T23:46:09.270Z,17.65
2022-09-15T23:48:37.211Z,17.66
2022-09-15T23:51:05.496Z,17.64
2022-09-15T23:53:33.504Z,17.61
2022-09-15T23:56:01.498Z,17.59
2022-09-15T23:58:29.269Z,17.57
